sensor_id;sensor_type;location;lat;lon;timestamp;P1;durP1;ratioP1;P2;durP2;ratioP2
47599;SDS011;33323;52.124;6.018;2023-03-03T00:01:53;53.25;;;19.27;;
47599;SDS011;33323;52.124;6.018;2023-03-03T00:04:20;48.05;;;19.90;;
47599;SDS011;33323;52.124;6.018;2023-03-03T00:06:47;47.15;;;19.58;;
47599;SDS011;33323;52.124;6.018;2023-03-03T00:09:13;46.08;;;19.17;;
47599;SDS011;33323;52.124;6.018;2023-03-03T00:11:41;53.53;;;19.80;;
47599;SDS011;33323;52.124;6.018;2023-03-03T00:14:18;46.92;;;17.60;;
47599;SDS011;33323;52.124;6.018;2023-03-03T00:16:51;46.22;;;17.63;;
47599;SDS011;33323;52.124;6.018;2023-03-03T00:19:18;42.90;;;18.70;;
47599;SDS011;33323;52.124;6.018;2023-03-03T00:21:46;45.70;;;17.95;;
47599;SDS011;33323;52.124;6.018;2023-03-03T00:24:19;45.13;;;18.55;;
47599;SDS011;33323;52.124;6.018;2023-03-03T00:26:50;51.35;;;18.52;;
47599;SDS011;33323;52.124;6.018;2023-03-03T00:29:40;48.55;;;18.65;;
47599;SDS011;33323;52.124;6.018;2023-03-03T00:34:41;51.47;;;19.35;;
47599;SDS011;33323;52.124;6.018;2023-03-03T00:40:14;52.58;;;17.38;;
47599;SDS011;33323;52.124;6.018;2023-03-03T00:42:50;44.58;;;17.98;;
47599;SDS011;33323;52.124;6.018;2023-03-03T00:45:27;46.33;;;17.75;;
47599;SDS011;33323;52.124;6.018;2023-03-03T00:48:25;43.80;;;17.23;;
47599;SDS011;33323;52.124;6.018;2023-03-03T00:51:08;39.28;;;17.20;;
47599;SDS011;33323;52.124;6.018;2023-03-03T00:53:46;33.75;;;14.15;;
47599;SDS011;33323;52.124;6.018;2023-03-03T00:56:13;39.50;;;15.88;;
47599;SDS011;33323;52.124;6.018;2023-03-03T00:58:41;41.10;;;16.65;;
47599;SDS011;33323;52.124;6.018;2023-03-03T01:01:09;36.50;;;16.70;;
47599;SDS011;33323;52.124;6.018;2023-03-03T01:03:42;38.13;;;15.85;;
47599;SDS011;33323;52.124;6.018;2023-03-03T01:06:09;41.33;;;15.45;;
47599;SDS011;33323;52.124;6.018;2023-03-03T01:08:37;36.10;;;15.48;;
47599;SDS011;33323;52.124;6.018;2023-03-03T01:11:14;35.33;;;13.73;;
47599;SDS011;33323;52.124;6.018;2023-03-03T01:13:47;35.95;;;15.45;;
47599;SDS011;33323;52.124;6.018;2023-03-03T01:16:18;40.08;;;15.77;;
47599;SDS011;33323;52.124;6.018;2023-03-03T01:18:45;40.50;;;16.27;;
47599;SDS011;33323;52.124;6.018;2023-03-03T01:21:12;49.53;;;18.10;;
47599;SDS011;33323;52.124;6.018;2023-03-03T01:23:39;43.65;;;15.73;;
47599;SDS011;33323;52.124;6.018;2023-03-03T01:26:06;43.70;;;17.92;;
47599;SDS011;33323;52.124;6.018;2023-03-03T01:28:33;38.92;;;16.17;;
47599;SDS011;33323;52.124;6.018;2023-03-03T01:31:01;38.55;;;16.33;;
47599;SDS011;33323;52.124;6.018;2023-03-03T01:33:30;37.63;;;15.07;;
47599;SDS011;33323;52.124;6.018;2023-03-03T01:35:59;34.97;;;15.13;;
47599;SDS011;33323;52.124;6.018;2023-03-03T01:38:27;35.83;;;12.70;;
47599;SDS011;33323;52.124;6.018;2023-03-03T01:40:56;34.63;;;14.60;;
47599;SDS011;33323;52.124;6.018;2023-03-03T01:43:25;38.35;;;14.30;;
47599;SDS011;33323;52.124;6.018;2023-03-03T01:48:30;34.40;;;13.18;;
47599;SDS011;33323;52.124;6.018;2023-03-03T01:51:12;37.67;;;13.88;;
47599;SDS011;33323;52.124;6.018;2023-03-03T01:53:49;38.80;;;13.98;;
47599;SDS011;33323;52.124;6.018;2023-03-03T01:56:23;35.08;;;13.43;;
47599;SDS011;33323;52.124;6.018;2023-03-03T01:58:53;41.42;;;16.02;;
47599;SDS011;33323;52.124;6.018;2023-03-03T02:01:27;33.85;;;14.40;;
47599;SDS011;33323;52.124;6.018;2023-03-03T02:03:57;37.28;;;14.43;;
47599;SDS011;33323;52.124;6.018;2023-03-03T02:06:26;37.10;;;14.02;;
47599;SDS011;33323;52.124;6.018;2023-03-03T02:09:01;35.83;;;15.73;;
47599;SDS011;33323;52.124;6.018;2023-03-03T02:11:58;29.42;;;12.82;;
47599;SDS011;33323;52.124;6.018;2023-03-03T02:14:31;32.33;;;12.73;;
47599;SDS011;33323;52.124;6.018;2023-03-03T02:16:58;32.15;;;13.73;;
47599;SDS011;33323;52.124;6.018;2023-03-03T02:19:42;36.80;;;13.48;;
47599;SDS011;33323;52.124;6.018;2023-03-03T02:22:43;33.22;;;13.90;;
47599;SDS011;33323;52.124;6.018;2023-03-03T02:25:20;37.75;;;14.02;;
47599;SDS011;33323;52.124;6.018;2023-03-03T02:27:56;32.08;;;13.50;;
47599;SDS011;33323;52.124;6.018;2023-03-03T02:30:24;38.15;;;14.02;;
47599;SDS011;33323;52.124;6.018;2023-03-03T02:32:52;28.02;;;12.80;;
47599;SDS011;33323;52.124;6.018;2023-03-03T02:35:32;39.28;;;15.55;;
47599;SDS011;33323;52.124;6.018;2023-03-03T02:40:58;38.65;;;14.57;;
47599;SDS011;33323;52.124;6.018;2023-03-03T02:43:37;36.75;;;15.32;;
47599;SDS011;33323;52.124;6.018;2023-03-03T02:46:32;34.33;;;14.35;;
47599;SDS011;33323;52.124;6.018;2023-03-03T02:49:05;39.22;;;14.90;;
47599;SDS011;33323;52.124;6.018;2023-03-03T02:51:35;44.08;;;16.80;;
47599;SDS011;33323;52.124;6.018;2023-03-03T02:54:03;45.72;;;17.60;;
47599;SDS011;33323;52.124;6.018;2023-03-03T02:56:32;41.50;;;15.48;;
47599;SDS011;33323;52.124;6.018;2023-03-03T02:58:59;31.85;;;13.98;;
47599;SDS011;33323;52.124;6.018;2023-03-03T03:01:30;40.13;;;16.48;;
47599;SDS011;33323;52.124;6.018;2023-03-03T03:04:08;41.75;;;17.15;;
47599;SDS011;33323;52.124;6.018;2023-03-03T03:06:42;39.05;;;15.65;;
47599;SDS011;33323;52.124;6.018;2023-03-03T03:09:12;43.17;;;15.20;;
47599;SDS011;33323;52.124;6.018;2023-03-03T03:11:41;50.95;;;17.77;;
47599;SDS011;33323;52.124;6.018;2023-03-03T03:14:10;40.20;;;15.52;;
47599;SDS011;33323;52.124;6.018;2023-03-03T03:16:39;44.13;;;17.00;;
47599;SDS011;33323;52.124;6.018;2023-03-03T03:19:07;46.17;;;17.25;;
47599;SDS011;33323;52.124;6.018;2023-03-03T03:21:35;40.40;;;17.40;;
47599;SDS011;33323;52.124;6.018;2023-03-03T03:24:05;40.35;;;15.13;;
47599;SDS011;33323;52.124;6.018;2023-03-03T03:26:34;42.10;;;16.13;;
47599;SDS011;33323;52.124;6.018;2023-03-03T03:29:02;45.45;;;16.60;;
47599;SDS011;33323;52.124;6.018;2023-03-03T03:31:30;41.03;;;15.85;;
47599;SDS011;33323;52.124;6.018;2023-03-03T03:33:57;44.42;;;16.98;;
47599;SDS011;33323;52.124;6.018;2023-03-03T03:36:27;40.10;;;17.42;;
47599;SDS011;33323;52.124;6.018;2023-03-03T03:38:54;35.75;;;15.02;;
47599;SDS011;33323;52.124;6.018;2023-03-03T03:41:21;41.35;;;15.35;;
47599;SDS011;33323;52.124;6.018;2023-03-03T03:43:48;45.00;;;15.52;;
47599;SDS011;33323;52.124;6.018;2023-03-03T03:46:15;46.58;;;17.02;;
47599;SDS011;33323;52.124;6.018;2023-03-03T03:48:43;43.00;;;15.70;;
47599;SDS011;33323;52.124;6.018;2023-03-03T03:51:12;42.70;;;16.67;;
47599;SDS011;33323;52.124;6.018;2023-03-03T03:53:40;42.47;;;16.10;;
47599;SDS011;33323;52.124;6.018;2023-03-03T03:56:07;42.95;;;15.98;;
47599;SDS011;33323;52.124;6.018;2023-03-03T03:58:34;36.33;;;14.40;;
47599;SDS011;33323;52.124;6.018;2023-03-03T04:01:06;45.08;;;15.18;;
47599;SDS011;33323;52.124;6.018;2023-03-03T04:03:39;45.58;;;18.52;;
47599;SDS011;33323;52.124;6.018;2023-03-03T04:06:10;44.90;;;17.75;;
47599;SDS011;33323;52.124;6.018;2023-03-03T04:08:37;49.38;;;16.48;;
47599;SDS011;33323;52.124;6.018;2023-03-03T04:11:04;50.13;;;17.27;;
47599;SDS011;33323;52.124;6.018;2023-03-03T04:13:31;46.75;;;17.40;;
47599;SDS011;33323;52.124;6.018;2023-03-03T04:16:03;47.15;;;17.35;;
47599;SDS011;33323;52.124;6.018;2023-03-03T04:18:30;49.38;;;16.30;;
47599;SDS011;33323;52.124;6.018;2023-03-03T04:20:58;48.58;;;19.30;;
47599;SDS011;33323;52.124;6.018;2023-03-03T04:23:26;54.50;;;19.10;;
47599;SDS011;33323;52.124;6.018;2023-03-03T04:25:53;42.92;;;16.63;;
47599;SDS011;33323;52.124;6.018;2023-03-03T04:28:21;47.92;;;16.38;;
47599;SDS011;33323;52.124;6.018;2023-03-03T04:30:51;41.38;;;15.00;;
47599;SDS011;33323;52.124;6.018;2023-03-03T04:33:19;32.10;;;15.45;;
47599;SDS011;33323;52.124;6.018;2023-03-03T04:35:47;38.00;;;14.10;;
47599;SDS011;33323;52.124;6.018;2023-03-03T04:38:15;28.95;;;13.57;;
47599;SDS011;33323;52.124;6.018;2023-03-03T04:40:44;30.80;;;12.38;;
47599;SDS011;33323;52.124;6.018;2023-03-03T04:43:12;37.10;;;13.25;;
47599;SDS011;33323;52.124;6.018;2023-03-03T04:45:39;33.65;;;13.32;;
47599;SDS011;33323;52.124;6.018;2023-03-03T04:48:07;33.65;;;12.82;;
47599;SDS011;33323;52.124;6.018;2023-03-03T04:50:35;37.58;;;14.20;;
47599;SDS011;33323;52.124;6.018;2023-03-03T04:53:03;35.63;;;13.00;;
47599;SDS011;33323;52.124;6.018;2023-03-03T04:55:30;28.52;;;11.23;;
47599;SDS011;33323;52.124;6.018;2023-03-03T04:57:57;31.65;;;11.70;;
47599;SDS011;33323;52.124;6.018;2023-03-03T05:00:24;29.75;;;13.05;;
47599;SDS011;33323;52.124;6.018;2023-03-03T05:02:51;25.42;;;10.80;;
47599;SDS011;33323;52.124;6.018;2023-03-03T05:05:18;31.75;;;11.88;;
47599;SDS011;33323;52.124;6.018;2023-03-03T05:07:45;26.08;;;11.32;;
47599;SDS011;33323;52.124;6.018;2023-03-03T05:10:12;34.05;;;11.05;;
47599;SDS011;33323;52.124;6.018;2023-03-03T05:12:40;36.63;;;12.90;;
47599;SDS011;33323;52.124;6.018;2023-03-03T05:15:07;41.30;;;11.93;;
47599;SDS011;33323;52.124;6.018;2023-03-03T05:17:34;44.05;;;15.60;;
47599;SDS011;33323;52.124;6.018;2023-03-03T05:20:02;41.75;;;15.50;;
47599;SDS011;33323;52.124;6.018;2023-03-03T05:22:33;50.38;;;17.17;;
47599;SDS011;33323;52.124;6.018;2023-03-03T05:25:00;52.35;;;17.10;;
47599;SDS011;33323;52.124;6.018;2023-03-03T05:27:27;47.53;;;15.88;;
47599;SDS011;33323;52.124;6.018;2023-03-03T05:29:54;39.00;;;16.77;;
47599;SDS011;33323;52.124;6.018;2023-03-03T05:32:22;40.17;;;16.02;;
47599;SDS011;33323;52.124;6.018;2023-03-03T05:34:49;39.95;;;15.85;;
47599;SDS011;33323;52.124;6.018;2023-03-03T05:37:17;52.67;;;15.23;;
47599;SDS011;33323;52.124;6.018;2023-03-03T05:39:44;42.35;;;16.48;;
47599;SDS011;33323;52.124;6.018;2023-03-03T05:42:11;40.67;;;15.93;;
47599;SDS011;33323;52.124;6.018;2023-03-03T05:44:39;41.22;;;16.02;;
47599;SDS011;33323;52.124;6.018;2023-03-03T05:47:06;40.90;;;15.90;;
47599;SDS011;33323;52.124;6.018;2023-03-03T05:49:33;40.58;;;17.50;;
47599;SDS011;33323;52.124;6.018;2023-03-03T05:52:00;43.53;;;15.38;;
47599;SDS011;33323;52.124;6.018;2023-03-03T05:54:28;38.97;;;15.10;;
47599;SDS011;33323;52.124;6.018;2023-03-03T05:56:54;38.33;;;14.35;;
47599;SDS011;33323;52.124;6.018;2023-03-03T05:59:23;39.03;;;15.23;;
47599;SDS011;33323;52.124;6.018;2023-03-03T06:01:50;41.13;;;14.43;;
47599;SDS011;33323;52.124;6.018;2023-03-03T06:04:17;31.85;;;13.73;;
47599;SDS011;33323;52.124;6.018;2023-03-03T06:06:44;40.58;;;14.93;;
47599;SDS011;33323;52.124;6.018;2023-03-03T06:09:11;34.15;;;14.25;;
47599;SDS011;33323;52.124;6.018;2023-03-03T06:11:38;39.67;;;14.93;;
47599;SDS011;33323;52.124;6.018;2023-03-03T06:14:05;32.10;;;12.90;;
47599;SDS011;33323;52.124;6.018;2023-03-03T06:16:32;42.28;;;13.13;;
47599;SDS011;33323;52.124;6.018;2023-03-03T06:19:00;34.45;;;12.77;;
47599;SDS011;33323;52.124;6.018;2023-03-03T06:21:27;36.90;;;15.50;;
47599;SDS011;33323;52.124;6.018;2023-03-03T06:23:54;39.28;;;13.48;;
47599;SDS011;33323;52.124;6.018;2023-03-03T06:26:21;34.50;;;13.25;;
47599;SDS011;33323;52.124;6.018;2023-03-03T06:28:48;38.88;;;14.10;;
47599;SDS011;33323;52.124;6.018;2023-03-03T06:31:19;39.53;;;14.48;;
47599;SDS011;33323;52.124;6.018;2023-03-03T06:33:46;39.47;;;15.13;;
47599;SDS011;33323;52.124;6.018;2023-03-03T06:36:13;47.65;;;15.70;;
47599;SDS011;33323;52.124;6.018;2023-03-03T06:38:40;40.80;;;15.77;;
47599;SDS011;33323;52.124;6.018;2023-03-03T06:41:07;41.97;;;13.60;;
47599;SDS011;33323;52.124;6.018;2023-03-03T06:43:35;40.15;;;12.93;;
47599;SDS011;33323;52.124;6.018;2023-03-03T06:46:02;38.85;;;12.65;;
47599;SDS011;33323;52.124;6.018;2023-03-03T06:48:31;36.58;;;13.65;;
47599;SDS011;33323;52.124;6.018;2023-03-03T06:50:59;32.05;;;12.52;;
47599;SDS011;33323;52.124;6.018;2023-03-03T06:53:30;35.70;;;14.50;;
47599;SDS011;33323;52.124;6.018;2023-03-03T06:55:58;31.80;;;13.05;;
47599;SDS011;33323;52.124;6.018;2023-03-03T06:58:27;36.53;;;13.80;;
47599;SDS011;33323;52.124;6.018;2023-03-03T07:00:58;32.88;;;12.45;;
47599;SDS011;33323;52.124;6.018;2023-03-03T07:03:30;38.75;;;14.70;;
47599;SDS011;33323;52.124;6.018;2023-03-03T07:06:00;37.85;;;14.13;;
47599;SDS011;33323;52.124;6.018;2023-03-03T07:08:31;39.85;;;14.57;;
47599;SDS011;33323;52.124;6.018;2023-03-03T07:11:00;39.58;;;14.38;;
47599;SDS011;33323;52.124;6.018;2023-03-03T07:13:34;42.65;;;13.85;;
47599;SDS011;33323;52.124;6.018;2023-03-03T07:16:10;34.88;;;14.43;;
47599;SDS011;33323;52.124;6.018;2023-03-03T07:18:40;37.33;;;14.65;;
47599;SDS011;33323;52.124;6.018;2023-03-03T07:21:25;33.55;;;12.10;;
47599;SDS011;33323;52.124;6.018;2023-03-03T07:27:05;47.65;;;14.60;;
47599;SDS011;33323;52.124;6.018;2023-03-03T07:29:45;32.83;;;13.38;;
47599;SDS011;33323;52.124;6.018;2023-03-03T07:32:25;49.72;;;14.13;;
47599;SDS011;33323;52.124;6.018;2023-03-03T07:35:25;40.28;;;15.23;;
47599;SDS011;33323;52.124;6.018;2023-03-03T07:40:52;44.28;;;15.93;;
47599;SDS011;33323;52.124;6.018;2023-03-03T07:43:33;40.92;;;13.10;;
47599;SDS011;33323;52.124;6.018;2023-03-03T07:48:39;41.70;;;13.43;;
47599;SDS011;33323;52.124;6.018;2023-03-03T07:57:01;30.13;;;11.70;;
47599;SDS011;33323;52.124;6.018;2023-03-03T07:59:37;36.28;;;10.25;;
47599;SDS011;33323;52.124;6.018;2023-03-03T08:02:34;23.75;;;9.10;;
47599;SDS011;33323;52.124;6.018;2023-03-03T08:05:41;31.70;;;9.40;;
47599;SDS011;33323;52.124;6.018;2023-03-03T08:10:40;23.60;;;8.50;;
47599;SDS011;33323;52.124;6.018;2023-03-03T08:13:21;30.65;;;9.07;;
47599;SDS011;33323;52.124;6.018;2023-03-03T08:16:39;26.50;;;9.98;;
47599;SDS011;33323;52.124;6.018;2023-03-03T08:18:42;19.80;;;8.20;;
47599;SDS011;33323;52.124;6.018;2023-03-03T08:21:15;20.35;;;7.93;;
47599;SDS011;33323;52.124;6.018;2023-03-03T08:23:46;24.67;;;9.30;;
47599;SDS011;33323;52.124;6.018;2023-03-03T08:26:17;16.48;;;7.45;;
47599;SDS011;33323;52.124;6.018;2023-03-03T08:28:46;20.85;;;7.93;;
47599;SDS011;33323;52.124;6.018;2023-03-03T08:31:13;18.88;;;6.60;;
47599;SDS011;33323;52.124;6.018;2023-03-03T08:34:02;23.38;;;7.25;;
47599;SDS011;33323;52.124;6.018;2023-03-03T08:36:30;14.52;;;7.35;;
47599;SDS011;33323;52.124;6.018;2023-03-03T08:39:00;14.73;;;6.32;;
47599;SDS011;33323;52.124;6.018;2023-03-03T08:41:28;12.60;;;6.53;;
47599;SDS011;33323;52.124;6.018;2023-03-03T08:43:55;13.82;;;6.65;;
47599;SDS011;33323;52.124;6.018;2023-03-03T08:46:22;14.25;;;5.75;;
47599;SDS011;33323;52.124;6.018;2023-03-03T08:48:49;12.55;;;5.70;;
47599;SDS011;33323;52.124;6.018;2023-03-03T08:51:16;21.10;;;5.97;;
47599;SDS011;33323;52.124;6.018;2023-03-03T08:53:43;16.00;;;7.05;;
47599;SDS011;33323;52.124;6.018;2023-03-03T08:56:10;12.20;;;6.50;;
47599;SDS011;33323;52.124;6.018;2023-03-03T08:58:37;13.70;;;6.10;;
47599;SDS011;33323;52.124;6.018;2023-03-03T09:01:24;16.33;;;6.38;;
47599;SDS011;33323;52.124;6.018;2023-03-03T09:03:52;17.90;;;6.00;;
47599;SDS011;33323;52.124;6.018;2023-03-03T09:06:19;17.20;;;7.03;;
47599;SDS011;33323;52.124;6.018;2023-03-03T09:08:46;14.05;;;6.28;;
47599;SDS011;33323;52.124;6.018;2023-03-03T09:11:13;14.40;;;5.93;;
47599;SDS011;33323;52.124;6.018;2023-03-03T09:13:48;15.05;;;6.38;;
47599;SDS011;33323;52.124;6.018;2023-03-03T09:16:18;14.68;;;6.32;;
47599;SDS011;33323;52.124;6.018;2023-03-03T09:18:48;11.55;;;6.03;;
47599;SDS011;33323;52.124;6.018;2023-03-03T09:21:21;12.55;;;5.72;;
47599;SDS011;33323;52.124;6.018;2023-03-03T09:23:53;13.97;;;6.10;;
47599;SDS011;33323;52.124;6.018;2023-03-03T09:31:45;12.60;;;5.20;;
47599;SDS011;33323;52.124;6.018;2023-03-03T09:37:23;9.25;;;5.53;;
47599;SDS011;33323;52.124;6.018;2023-03-03T09:39:55;12.18;;;5.97;;
47599;SDS011;33323;52.124;6.018;2023-03-03T09:42:32;10.57;;;5.32;;
47599;SDS011;33323;52.124;6.018;2023-03-03T09:45:18;10.50;;;5.25;;
47599;SDS011;33323;52.124;6.018;2023-03-03T09:48:13;8.95;;;4.15;;
47599;SDS011;33323;52.124;6.018;2023-03-03T09:57:31;7.85;;;4.30;;
47599;SDS011;33323;52.124;6.018;2023-03-03T10:11:28;7.10;;;4.70;;
47599;SDS011;33323;52.124;6.018;2023-03-03T10:17:48;8.75;;;4.18;;
47599;SDS011;33323;52.124;6.018;2023-03-03T10:23:23;7.03;;;3.78;;
47599;SDS011;33323;52.124;6.018;2023-03-03T10:46:54;6.55;;;3.85;;
47599;SDS011;33323;52.124;6.018;2023-03-03T10:55:30;5.95;;;3.10;;
47599;SDS011;33323;52.124;6.018;2023-03-03T11:06:48;4.13;;;3.40;;
47599;SDS011;33323;52.124;6.018;2023-03-03T11:12:08;4.25;;;3.30;;
47599;SDS011;33323;52.124;6.018;2023-03-03T11:23:06;5.90;;;3.40;;
47599;SDS011;33323;52.124;6.018;2023-03-03T11:31:56;6.05;;;2.97;;
47599;SDS011;33323;52.124;6.018;2023-03-03T11:40:29;14.80;;;3.10;;
47599;SDS011;33323;52.124;6.018;2023-03-03T11:46:05;11.00;;;4.10;;
47599;SDS011;33323;52.124;6.018;2023-03-03T11:52:02;9.23;;;3.25;;
47599;SDS011;33323;52.124;6.018;2023-03-03T11:57:20;10.77;;;4.40;;
47599;SDS011;33323;52.124;6.018;2023-03-03T12:11:29;4.07;;;2.70;;
47599;SDS011;33323;52.124;6.018;2023-03-03T12:14:25;4.70;;;3.08;;
47599;SDS011;33323;52.124;6.018;2023-03-03T12:29:12;4.63;;;2.63;;
47599;SDS011;33323;52.124;6.018;2023-03-03T12:34:56;3.92;;;2.28;;
47599;SDS011;33323;52.124;6.018;2023-03-03T12:40:25;7.20;;;2.28;;
47599;SDS011;33323;52.124;6.018;2023-03-03T12:45:57;3.92;;;1.90;;
47599;SDS011;33323;52.124;6.018;2023-03-03T12:48:54;5.38;;;2.47;;
47599;SDS011;33323;52.124;6.018;2023-03-03T12:54:17;6.90;;;3.28;;
47599;SDS011;33323;52.124;6.018;2023-03-03T12:57:00;5.97;;;2.33;;
47599;SDS011;33323;52.124;6.018;2023-03-03T13:02:52;3.97;;;2.00;;
47599;SDS011;33323;52.124;6.018;2023-03-03T13:14:23;3.47;;;1.33;;
47599;SDS011;33323;52.124;6.018;2023-03-03T13:17:26;5.53;;;2.38;;
47599;SDS011;33323;52.124;6.018;2023-03-03T13:25:54;4.28;;;1.42;;
47599;SDS011;33323;52.124;6.018;2023-03-03T13:28:34;3.53;;;1.70;;
47599;SDS011;33323;52.124;6.018;2023-03-03T13:31:22;5.13;;;1.50;;
47599;SDS011;33323;52.124;6.018;2023-03-03T13:33:58;4.05;;;1.33;;
47599;SDS011;33323;52.124;6.018;2023-03-03T13:39:32;3.40;;;1.70;;
47599;SDS011;33323;52.124;6.018;2023-03-03T13:42:23;1.85;;;1.08;;
47599;SDS011;33323;52.124;6.018;2023-03-03T13:45:22;6.70;;;1.10;;
47599;SDS011;33323;52.124;6.018;2023-03-03T14:01:00;2.65;;;1.00;;
47599;SDS011;33323;52.124;6.018;2023-03-03T14:03:52;2.88;;;1.20;;
47599;SDS011;33323;52.124;6.018;2023-03-03T14:06:36;3.20;;;1.05;;
47599;SDS011;33323;52.124;6.018;2023-03-03T14:09:11;2.58;;;1.30;;
47599;SDS011;33323;52.124;6.018;2023-03-03T14:11:59;3.03;;;1.20;;
47599;SDS011;33323;52.124;6.018;2023-03-03T14:20:22;6.00;;;1.13;;
47599;SDS011;33323;52.124;6.018;2023-03-03T14:23:01;3.63;;;2.08;;
47599;SDS011;33323;52.124;6.018;2023-03-03T14:25:55;2.58;;;1.30;;
47599;SDS011;33323;52.124;6.018;2023-03-03T14:28:36;3.55;;;1.20;;
47599;SDS011;33323;52.124;6.018;2023-03-03T14:36:40;2.55;;;1.20;;
47599;SDS011;33323;52.124;6.018;2023-03-03T14:42:00;4.15;;;1.30;;
47599;SDS011;33323;52.124;6.018;2023-03-03T14:45:04;8.20;;;1.48;;
47599;SDS011;33323;52.124;6.018;2023-03-03T14:47:29;3.67;;;1.63;;
47599;SDS011;33323;52.124;6.018;2023-03-03T14:49:57;2.95;;;1.30;;
47599;SDS011;33323;52.124;6.018;2023-03-03T14:52:29;5.13;;;1.83;;
47599;SDS011;33323;52.124;6.018;2023-03-03T14:54:59;3.92;;;1.00;;
47599;SDS011;33323;52.124;6.018;2023-03-03T15:02:41;3.83;;;1.88;;
47599;SDS011;33323;52.124;6.018;2023-03-03T15:05:22;3.63;;;1.38;;
47599;SDS011;33323;52.124;6.018;2023-03-03T15:07:57;2.83;;;1.45;;
47599;SDS011;33323;52.124;6.018;2023-03-03T15:10:42;4.93;;;1.48;;
47599;SDS011;33323;52.124;6.018;2023-03-03T15:18:25;2.78;;;1.20;;
47599;SDS011;33323;52.124;6.018;2023-03-03T15:26:56;5.25;;;1.00;;
47599;SDS011;33323;52.124;6.018;2023-03-03T15:38:20;4.07;;;1.30;;
47599;SDS011;33323;52.124;6.018;2023-03-03T15:44:08;2.55;;;1.30;;
47599;SDS011;33323;52.124;6.018;2023-03-03T15:47:18;3.30;;;1.17;;
47599;SDS011;33323;52.124;6.018;2023-03-03T15:56:25;2.60;;;1.40;;
47599;SDS011;33323;52.124;6.018;2023-03-03T16:05:12;1.80;;;1.40;;
47599;SDS011;33323;52.124;6.018;2023-03-03T16:08:07;3.85;;;1.10;;
47599;SDS011;33323;52.124;6.018;2023-03-03T16:13:36;3.92;;;1.10;;
47599;SDS011;33323;52.124;6.018;2023-03-03T16:19:17;1.63;;;1.00;;
47599;SDS011;33323;52.124;6.018;2023-03-03T16:22:14;2.83;;;1.27;;
47599;SDS011;33323;52.124;6.018;2023-03-03T16:28:04;1.52;;;1.05;;
47599;SDS011;33323;52.124;6.018;2023-03-03T16:36:53;2.45;;;0.95;;
47599;SDS011;33323;52.124;6.018;2023-03-03T16:42:28;3.08;;;0.90;;
47599;SDS011;33323;52.124;6.018;2023-03-03T16:53:24;4.70;;;1.38;;
47599;SDS011;33323;52.124;6.018;2023-03-03T16:56:02;2.38;;;0.85;;
47599;SDS011;33323;52.124;6.018;2023-03-03T16:58:58;3.40;;;0.95;;
47599;SDS011;33323;52.124;6.018;2023-03-03T17:05:18;3.60;;;0.90;;
47599;SDS011;33323;52.124;6.018;2023-03-03T17:10:57;3.28;;;0.85;;
47599;SDS011;33323;52.124;6.018;2023-03-03T17:13:50;1.40;;;0.63;;
47599;SDS011;33323;52.124;6.018;2023-03-03T17:25:13;3.63;;;0.90;;
47599;SDS011;33323;52.124;6.018;2023-03-03T17:45:22;4.13;;;0.80;;
47599;SDS011;33323;52.124;6.018;2023-03-03T17:56:30;2.55;;;0.65;;
47599;SDS011;33323;52.124;6.018;2023-03-03T18:03:00;5.82;;;0.75;;
47599;SDS011;33323;52.124;6.018;2023-03-03T18:11:58;3.10;;;0.75;;
47599;SDS011;33323;52.124;6.018;2023-03-03T18:23:43;7.15;;;1.42;;
47599;SDS011;33323;52.124;6.018;2023-03-03T18:29:16;7.68;;;1.13;;
47599;SDS011;33323;52.124;6.018;2023-03-03T18:34:32;3.60;;;1.10;;
47599;SDS011;33323;52.124;6.018;2023-03-03T18:42:48;5.35;;;1.67;;
47599;SDS011;33323;52.124;6.018;2023-03-03T18:47:57;8.40;;;1.58;;
47599;SDS011;33323;52.124;6.018;2023-03-03T18:50:32;4.03;;;1.67;;
47599;SDS011;33323;52.124;6.018;2023-03-03T18:53:16;13.77;;;2.08;;
47599;SDS011;33323;52.124;6.018;2023-03-03T18:55:47;13.80;;;2.15;;
47599;SDS011;33323;52.124;6.018;2023-03-03T19:00:44;8.05;;;1.58;;
47599;SDS011;33323;52.124;6.018;2023-03-03T19:03:28;13.35;;;1.92;;
47599;SDS011;33323;52.124;6.018;2023-03-03T19:06:01;15.98;;;2.20;;
47599;SDS011;33323;52.124;6.018;2023-03-03T19:08:44;10.65;;;1.83;;
47599;SDS011;33323;52.124;6.018;2023-03-03T19:16:57;20.63;;;2.85;;
47599;SDS011;33323;52.124;6.018;2023-03-03T19:19:29;7.53;;;1.77;;
47599;SDS011;33323;52.124;6.018;2023-03-03T19:25:19;13.00;;;2.65;;
47599;SDS011;33323;52.124;6.018;2023-03-03T19:27:58;15.15;;;2.28;;
47599;SDS011;33323;52.124;6.018;2023-03-03T19:31:06;14.82;;;1.65;;
47599;SDS011;33323;52.124;6.018;2023-03-03T19:55:21;11.43;;;2.03;;
47599;SDS011;33323;52.124;6.018;2023-03-03T20:00:47;20.65;;;2.45;;
47599;SDS011;33323;52.124;6.018;2023-03-03T20:03:47;7.78;;;2.33;;
47599;SDS011;33323;52.124;6.018;2023-03-03T20:07:11;12.35;;;2.20;;
47599;SDS011;33323;52.124;6.018;2023-03-03T20:18:21;17.10;;;3.97;;
47599;SDS011;33323;52.124;6.018;2023-03-03T20:26:55;8.27;;;2.00;;
47599;SDS011;33323;52.124;6.018;2023-03-03T20:29:54;13.85;;;1.83;;
47599;SDS011;33323;52.124;6.018;2023-03-03T20:36:02;4.93;;;1.88;;
47599;SDS011;33323;52.124;6.018;2023-03-03T20:39:01;14.15;;;2.78;;
47599;SDS011;33323;52.124;6.018;2023-03-03T20:47:23;10.60;;;1.95;;
47599;SDS011;33323;52.124;6.018;2023-03-03T20:53:05;11.25;;;2.03;;
47599;SDS011;33323;52.124;6.018;2023-03-03T20:55:54;14.35;;;3.38;;
47599;SDS011;33323;52.124;6.018;2023-03-03T20:58:45;17.95;;;3.60;;
47599;SDS011;33323;52.124;6.018;2023-03-03T21:01:35;13.43;;;3.00;;
47599;SDS011;33323;52.124;6.018;2023-03-03T21:04:25;18.80;;;5.65;;
47599;SDS011;33323;52.124;6.018;2023-03-03T21:06:55;6.18;;;2.15;;
47599;SDS011;33323;52.124;6.018;2023-03-03T21:12:24;13.98;;;1.95;;
47599;SDS011;33323;52.124;6.018;2023-03-03T21:15:02;7.18;;;3.45;;
47599;SDS011;33323;52.124;6.018;2023-03-03T21:17:34;12.23;;;3.95;;
47599;SDS011;33323;52.124;6.018;2023-03-03T21:20:23;14.00;;;2.63;;
47599;SDS011;33323;52.124;6.018;2023-03-03T21:22:54;13.45;;;2.90;;
47599;SDS011;33323;52.124;6.018;2023-03-03T21:33:46;15.95;;;3.28;;
47599;SDS011;33323;52.124;6.018;2023-03-03T21:37:02;13.75;;;2.40;;
47599;SDS011;33323;52.124;6.018;2023-03-03T21:39:37;11.02;;;3.08;;
47599;SDS011;33323;52.124;6.018;2023-03-03T21:42:10;12.25;;;3.22;;
47599;SDS011;33323;52.124;6.018;2023-03-03T21:44:45;13.15;;;3.28;;
47599;SDS011;33323;52.124;6.018;2023-03-03T21:47:20;20.75;;;3.38;;
47599;SDS011;33323;52.124;6.018;2023-03-03T21:49:49;14.18;;;3.75;;
47599;SDS011;33323;52.124;6.018;2023-03-03T21:52:18;18.35;;;3.45;;
47599;SDS011;33323;52.124;6.018;2023-03-03T21:54:48;12.02;;;2.67;;
47599;SDS011;33323;52.124;6.018;2023-03-03T21:57:17;19.92;;;4.10;;
47599;SDS011;33323;52.124;6.018;2023-03-03T21:59:44;18.08;;;4.30;;
47599;SDS011;33323;52.124;6.018;2023-03-03T22:02:11;19.35;;;4.15;;
47599;SDS011;33323;52.124;6.018;2023-03-03T22:04:38;17.23;;;3.75;;
47599;SDS011;33323;52.124;6.018;2023-03-03T22:07:06;11.27;;;2.97;;
47599;SDS011;33323;52.124;6.018;2023-03-03T22:09:34;14.80;;;1.90;;
47599;SDS011;33323;52.124;6.018;2023-03-03T22:12:02;14.02;;;2.30;;
47599;SDS011;33323;52.124;6.018;2023-03-03T22:14:30;11.43;;;3.33;;
47599;SDS011;33323;52.124;6.018;2023-03-03T22:16:58;8.65;;;1.70;;
47599;SDS011;33323;52.124;6.018;2023-03-03T22:19:25;16.85;;;3.25;;
47599;SDS011;33323;52.124;6.018;2023-03-03T22:21:52;11.68;;;2.83;;